Latest Weather Observations for Rocky Gully South

IDW60801

Issued at 9:02 am WST Tuesday 4 August 2015 (issued every 30 minutes, with the page automatically refreshed every 10 minutes)

About weather observations | Map of weather stations | Latest weather observations for WA | Other Formats
Station Details ID: 009964 Name: ROCKY GULLY Lat: -34.57 Lon: 117.01 Height: 250.0 m
Data from the previous 72 hours. | See also: Recent months at Rocky Gully South
Date/Time
WST
Temp
°C
App
Temp
°C
Dew
Point
Rel
Hum
%
Delta-T
°C
Wind Press
QNH
hPa
Press
MSL
hPa
Rain
since 9 am
mm
Dir
 
Spd
km/h
Gust
km/h
Spd
kts
Gust
kts
04/09:00am 10.1 9.9 9.2 94 0.5 CALM 0 9 0 5 - - 1.4
04/08:30am 9.6 8.9 8.7 94 0.4 ENE 2 7 1 4 - - 1.4
04/08:00am 8.7 8.2 7.8 94 0.4 CALM 0 0 0 0 - - 1.0
04/07:30am 8.4 7.8 7.5 94 0.4 CALM 0 0 0 0 - - 0.8
04/07:00am 8.3 7.7 7.4 94 0.4 CALM 0 0 0 0 - - 0.4
04/06:30am 8.2 7.6 7.3 94 0.4 CALM 0 0 0 0 - - 0.4
04/06:00am 8.2 7.6 7.3 94 0.4 CALM 0 0 0 0 - - 0.2
04/05:30am 8.1 7.5 7.2 94 0.4 CALM 0 0 0 0 - - 0.2
04/05:00am 7.9 7.2 7.0 94 0.4 CALM 0 0 0 0 - - 0.0
04/04:30am 7.9 7.2 7.0 94 0.4 CALM 0 4 0 2 - - 0.0
04/04:00am 7.7 5.8 6.8 94 0.4 N 6 7 3 4 - - 0.0
04/03:30am 7.4 5.5 6.5 94 0.4 N 6 7 3 4 - - 0.0
04/03:00am 7.3 6.5 6.4 94 0.4 CALM 0 0 0 0 - - 0.0
04/02:30am 7.1 4.9 6.2 94 0.4 N 7 9 4 5 - - 0.0
04/02:00am 6.6 4.3 5.7 94 0.4 N 7 7 4 4 - - 0.0
04/01:30am 6.8 5.4 5.7 93 0.5 N 2 7 1 4 - - 0.0
04/01:00am 6.6 4.5 5.6 93 0.5 N 6 7 3 4 - - 0.0
04/12:30am 6.5 5.1 5.5 93 0.4 N 2 6 1 3 - - 0.0
04/12:00am 6.9 5.9 5.7 92 0.5 CALM 0 0 0 0 - - 0.0
 
Date/Time
WST
Temp
°C
App
Temp
°C
Dew
Point
Rel
Hum
%
Delta-T
°C
Wind Press
QNH
hPa
Press
MSL
hPa
Rain
since 9 am
mm
Dir
 
Spd
km/h
Gust
km/h
Spd
kts
Gust
kts
03/11:30pm 7.6 6.8 6.4 92 0.6 CALM 0 0 0 0 - - 0.0
03/11:00pm 8.2 7.5 7.0 92 0.6 CALM 0 0 0 0 - - 0.0
03/10:30pm 8.8 8.2 7.6 92 0.6 CALM 0 0 0 0 - - 0.0
03/10:00pm 9.6 8.0 8.2 91 0.7 S 6 7 3 4 - - 0.0
03/09:30pm 10.2 8.8 8.8 91 0.7 S 6 7 3 4 - - 0.0
03/09:00pm 9.9 9.6 8.5 91 0.7 CALM 0 0 0 0 - - 0.0
03/08:30pm 10.3 8.7 8.7 90 0.8 S 7 9 4 5 - - 0.0
03/08:00pm 10.0 9.6 8.3 89 0.8 CALM 0 2 0 1 - - 0.0
03/07:30pm 10.6 9.2 8.7 88 0.9 S 6 9 3 5 - - 0.0
03/07:00pm 11.1 9.6 9.0 87 1.1 S 7 9 4 5 - - 0.0
03/06:30pm 11.7 11.2 9.3 85 1.2 S 2 7 1 4 - - 0.0
03/06:00pm 12.1 11.2 9.1 82 1.5 S 4 7 2 4 - - 0.0
03/05:30pm 12.3 11.3 9.0 80 1.7 SSE 4 9 2 5 - - 0.0
03/05:00pm 13.4 13.2 9.1 75 2.2 CALM 0 0 0 0 - - 0.0
03/04:30pm 13.6 12.6 8.9 73 2.4 SE 4 7 2 4 - - 0.0
03/04:00pm 14.5 14.0 8.0 65 3.3 CALM 0 0 0 0 - - 0.0
03/03:30pm 14.3 12.7 8.0 66 3.2 NW 6 7 3 4 - - 0.0
03/03:00pm 14.1 12.4 8.3 68 2.9 W 7 11 4 6 - - 0.0
03/02:30pm 14.9 13.2 7.7 62 3.6 WSW 6 9 3 5 - - 0.0
03/02:00pm 14.2 13.2 7.3 63 3.4 NW 2 7 1 4 - - 0.0
03/01:30pm 14.3 12.4 7.6 64 3.4 W 7 11 4 6 - - 0.0
03/01:00pm 14.3 12.5 8.0 66 3.2 N 7 11 4 6 - - 0.0
03/12:30pm 14.1 12.4 7.6 65 3.2 N 6 13 3 7 - - 0.0
03/12:00pm 13.9 12.4 8.3 69 2.8 NNW 6 9 3 5 - - 0.0
03/11:30am 14.0 12.5 8.6 70 2.8 NW 6 11 3 6 - - 0.0
03/11:00am 12.7 10.9 8.0 73 2.3 NW 7 13 4 7 - - 0.0
03/10:30am 12.0 10.6 9.4 84 1.3 N 7 11 4 6 - - 0.0
03/10:00am 10.8 10.3 9.4 91 0.7 N 2 7 1 4 - - 0.0
03/09:30am 9.8 8.2 8.9 94 0.4 N 7 9 4 5 - - 0.0
03/09:00am 8.7 6.9 7.9 95 0.4 N 7 9 4 5 - - 0.4
03/08:30am 7.1 5.1 6.4 95 0.3 N 6 7 3 4 - - 0.4
03/08:00am 5.6 3.1 4.9 95 0.3 N 7 7 4 4 - - 0.4
03/07:30am 4.9 2.3 4.2 95 0.3 N 7 9 4 5 - - 0.4
03/07:00am 5.0 2.4 4.3 95 0.3 N 7 9 4 5 - - 0.4
03/06:30am 4.5 3.1 3.8 95 0.3 CALM 0 0 0 0 - - 0.4
03/06:00am 3.9 2.4 3.0 94 0.4 CALM 0 0 0 0 - - 0.4
03/05:30am 4.5 3.1 3.6 94 0.4 CALM 0 0 0 0 - - 0.4
03/05:00am 4.8 3.1 3.9 94 0.4 NNW 2 6 1 3 - - 0.4
03/04:30am 4.9 2.8 4.0 94 0.4 N 4 6 2 3 - - 0.4
03/04:00am 6.5 5.5 5.6 94 0.4 CALM 0 0 0 0 - - 0.4
03/03:30am 6.4 5.0 5.5 94 0.4 N 2 6 1 3 - - 0.4
03/03:00am 6.8 4.7 5.9 94 0.4 N 6 7 3 4 - - 0.4
03/02:30am 7.1 6.2 6.0 93 0.5 CALM 0 0 0 0 - - 0.4
03/02:00am 7.8 7.0 6.7 93 0.5 CALM 0 0 0 0 - - 0.4
03/01:30am 7.7 6.9 6.6 93 0.5 CALM 0 0 0 0 - - 0.4
03/01:00am 7.9 7.2 6.8 93 0.5 CALM 0 0 0 0 - - 0.4
03/12:30am 7.9 7.2 6.8 93 0.5 CALM 0 0 0 0 - - 0.4
03/12:00am 7.6 6.8 6.5 93 0.5 CALM 0 0 0 0 - - 0.4
 
Date/Time
WST
Temp
°C
App
Temp
°C
Dew
Point
Rel
Hum
%
Delta-T
°C
Wind Press
QNH
hPa
Press
MSL
hPa
Rain
since 9 am
mm
Dir
 
Spd
km/h
Gust
km/h
Spd
kts
Gust
kts
02/11:30pm 7.2 6.3 6.1 93 0.5 CALM 0 0 0 0 - - 0.4
02/11:00pm 7.6 6.8 6.5 93 0.5 CALM 0 0 0 0 - - 0.4
02/10:30pm 8.1 7.4 7.0 93 0.5 CALM 0 0 0 0 - - 0.4
02/10:00pm 8.1 7.4 7.0 93 0.5 CALM 0 0 0 0 - - 0.4
02/09:30pm 8.1 7.4 6.9 92 0.6 CALM 0 0 0 0 - - 0.4
02/09:00pm 7.8 7.0 6.6 92 0.6 CALM 0 0 0 0 - - 0.4
02/08:30pm 7.9 7.1 6.7 92 0.6 CALM 0 0 0 0 - - 0.4
02/08:00pm 8.6 8.0 7.2 91 0.7 CALM 0 0 0 0 - - 0.4
02/07:30pm 9.0 8.4 7.6 91 0.7 CALM 0 0 0 0 - - 0.4
02/07:00pm 8.9 8.3 7.4 90 0.7 CALM 0 0 0 0 - - 0.4
02/06:30pm 9.3 8.8 7.7 90 0.8 CALM 0 0 0 0 - - 0.4
02/06:00pm 9.6 8.4 7.9 89 0.8 SSE 4 6 2 3 - - 0.4
02/05:30pm 10.2 8.5 8.3 88 0.9 S 7 13 4 7 - - 0.4
02/05:00pm 10.7 9.1 8.6 87 1.0 SE 7 11 4 6 - - 0.4
02/04:30pm 11.5 9.7 9.4 87 1.1 S 9 15 5 8 - - 0.4
02/04:00pm 11.5 10.0 9.1 85 1.2 S 7 15 4 8 - - 0.2
02/03:30pm 12.4 11.0 8.9 79 1.8 SSW 6 9 3 5 - - 0.2
02/03:00pm 12.0 9.3 8.8 81 1.6 S 13 22 7 12 - - 0.0
02/02:30pm 13.7 11.6 8.1 69 2.8 S 9 13 5 7 - - 0.0
02/02:00pm 12.2 10.2 8.7 79 1.8 SW 9 15 5 8 - - 0.0
02/01:30pm 13.3 11.0 7.5 68 2.9 SW 9 13 5 7 - - 0.0
02/01:00pm 13.1 10.8 7.5 69 2.8 SSW 9 13 5 7 - - 0.0
02/12:30pm 13.5 11.8 7.5 67 3.0 SSW 6 9 3 5 - - 0.0
02/12:00pm 12.3 9.9 7.2 71 2.5 W 9 13 5 7 - - 0.0
02/11:30am 13.2 11.7 8.3 72 2.5 SSE 6 11 3 6 - - 0.0
02/11:00am 11.4 9.1 7.3 76 2.0 SW 9 17 5 9 - - 0.0
02/10:30am 10.7 8.6 8.3 85 1.2 WNW 9 15 5 8 - - 0.0
02/10:00am 9.9 8.3 8.7 92 0.6 NW 7 11 4 6 - - 0.0
02/09:30am 9.1 7.5 8.2 94 0.4 N 6 7 3 4 - - 0.0
02/09:00am 8.4 7.4 7.5 94 0.4 NW 2 6 1 3 - - 0.0
02/08:30am 7.7 6.2 6.8 94 0.4 NNW 4 9 2 5 - - 0.0
02/08:00am 7.2 6.4 6.3 94 0.4 CALM 0 6 0 3 - - 0.0
02/07:30am 6.6 4.9 5.7 94 0.4 NW 4 7 2 4 - - 0.0
02/07:00am 6.0 4.5 5.1 94 0.4 WNW 2 6 1 3 - - 0.0
02/06:30am 5.7 4.5 4.8 94 0.4 CALM 0 0 0 0 - - 0.0
02/06:00am 5.7 3.2 4.7 93 0.4 N 7 11 4 6 - - 0.0
02/05:30am 5.9 3.6 4.9 93 0.4 N 6 7 3 4 - - 0.0
02/05:00am 6.2 4.4 5.2 93 0.4 WNW 4 7 2 4 - - 0.0
02/04:30am 6.0 4.9 5.0 93 0.4 CALM 0 0 0 0 - - 0.0
02/04:00am 6.3 5.2 5.3 93 0.4 CALM 0 0 0 0 - - 0.0
02/03:30am 6.1 3.8 4.9 92 0.5 WNW 6 7 3 4 - - 0.0
02/03:00am 6.1 3.8 4.9 92 0.5 SSW 6 9 3 5 - - 0.0
02/02:30am 6.0 4.8 4.8 92 0.5 CALM 0 0 0 0 - - 0.0
02/02:00am 5.8 4.6 4.6 92 0.5 CALM 0 0 0 0 - - 0.0
02/01:30am 5.4 4.1 4.1 91 0.6 CALM 0 0 0 0 - - 0.0
02/01:00am 5.9 4.7 4.4 90 0.7 CALM 0 0 0 0 - - 0.0
02/12:30am 6.3 5.1 4.6 89 0.7 CALM 0 0 0 0 - - 0.0
02/12:00am 7.3 6.3 5.6 89 0.8 CALM 0 0 0 0 - - 0.0
 
Date/Time
WST
Temp
°C
App
Temp
°C
Dew
Point
Rel
Hum
%
Delta-T
°C
Wind Press
QNH
hPa
Press
MSL
hPa
Rain
since 9 am
mm
Dir
 
Spd
km/h
Gust
km/h
Spd
kts
Gust
kts
01/11:30pm 8.0 5.4 6.3 89 0.8 S 9 13 5 7 - - 0.0
01/11:00pm 8.0 7.2 6.3 89 0.8 CALM 0 9 0 5 - - 0.0
01/10:30pm 8.1 6.5 6.4 89 0.8 N 4 7 2 4 - - 0.0
01/10:00pm 8.1 7.3 6.4 89 0.8 CALM 0 7 0 4 - - 0.0
01/09:30pm 8.1 6.5 6.2 88 0.9 N 4 7 2 4 - - 0.0
01/09:00pm 8.3 7.4 6.1 86 1.0 CALM 0 0 0 0 - - 0.0
01/08:30pm 8.6 7.7 5.9 83 1.2 CALM 0 0 0 0 - - 0.0
01/08:00pm 8.8 7.8 5.7 81 1.4 CALM 0 6 0 3 - - 0.0
01/07:30pm 8.7 6.6 6.0 83 1.3 SSE 6 9 3 5 - - 0.0
01/07:00pm 8.7 7.0 6.0 83 1.3 SSW 4 6 2 3 - - 0.0
01/06:30pm 8.7 7.7 5.4 80 1.5 CALM 0 0 0 0 - - 0.0
01/06:00pm 9.1 8.0 5.3 77 1.7 CALM 0 0 0 0 - - 0.0
01/05:30pm 9.6 7.7 4.8 72 2.2 SE 4 7 2 4 - - 0.0
01/05:00pm 9.9 7.4 4.7 70 2.4 SSE 7 11 4 6 - - 0.0
01/04:30pm 10.3 7.0 4.5 67 2.6 SSE 11 15 6 8 - - 0.0
01/04:00pm 10.7 7.8 4.4 65 2.9 SSE 9 13 5 7 - - 0.0
01/03:30pm 10.7 7.0 4.4 65 2.9 SSE 13 20 7 11 - - 0.0
01/03:00pm 10.9 7.3 5.0 67 2.7 S 13 17 7 9 - - 0.0
01/02:30pm 11.1 7.5 5.2 67 2.7 S 13 19 7 10 - - 0.0
01/02:00pm 11.2 7.4 4.0 61 3.3 SSE 13 24 7 13 - - 0.0
01/01:30pm 11.2 7.1 4.2 62 3.2 S 15 24 8 13 - - 0.0
01/01:00pm 11.3 7.2 4.1 61 3.3 S 15 22 8 12 - - 0.0
01/12:30pm 11.4 7.7 4.4 62 3.2 S 13 20 7 11 - - 0.0
01/12:00pm 11.0 7.0 4.7 65 2.9 S 15 24 8 13 - - 0.0
01/11:30am 11.4 7.9 5.5 67 2.8 SSE 13 22 7 12 - - 0.0
01/11:00am 11.3 8.3 6.0 70 2.5 SSE 11 20 6 11 - - 0.0
01/10:30am 10.8 7.0 5.6 70 2.4 SSE 15 24 8 13 - - 0.0
01/10:00am 10.8 7.4 6.0 72 2.3 S 13 19 7 10 - - 0.0
01/09:30am 10.0 7.0 6.0 76 1.9 S 11 17 6 9 - - 0.0

Other Formats:

Comma delimited format used in spreadsheet applications
http://www.bom.gov.au/fwo/IDW60801/IDW60801.94631.axf

JavaScript Object Notation format (JSON) in row-major order
http://www.bom.gov.au/fwo/IDW60801/IDW60801.94631.json